KLM681 EHAM-CYVR
Flight info
| Callsign | KLM681 |
|---|---|
| Flight time | N/A |
| Altitude | 33000 |
| Route | ANDIK Z733 KONOM DCT SUTEB/N0476F340 DCT KARLI DCT ALLOY/N0475F360 DCT IPTON/M083F360 DCT 65N020W 65N030W 66N040W 67N050W/M083F380 DCT EPMAN/N0488F380 DCT YZS DCT YMM/N0471F400 DCT YZU DCT NADPI DCT MERYT DCT BOOTH CANUC6 |
| Aircraft | MD11/H-SDE1E2E3FGHIJ2J3J4J5M1RWXY/LB1D1 |
Departure
| Time | 2026-04-30 09:59 |
|---|---|
| Airport | Amsterdam Airport Schiphol (EHAM) |
Arrival
| Time | N/A |
|---|---|
| Airport | Vancouver International Airport (CYVR) |
| Time | Latitude | Longitude | Altitude | Speed | Heading |
|---|---|---|---|---|---|
| 2026-04-30 09:05 | 52.31360 | 4.76068 | 6 ft | 0 kts | 146° |
| 2026-04-30 09:42 | 52.31361 | 4.76067 | 7 ft | 2 kts | 146° |
| 2026-04-30 09:43 | 52.31382 | 4.76044 | 8 ft | 4 kts | 147° |
| 2026-04-30 09:43 | 52.31405 | 4.76020 | 10 ft | 4 kts | 147° |
| 2026-04-30 09:43 | 52.31427 | 4.75995 | 8 ft | 4 kts | 137° |
| 2026-04-30 09:43 | 52.31441 | 4.75966 | 10 ft | 4 kts | 85° |
| 2026-04-30 09:44 | 52.31430 | 4.75939 | 8 ft | 4 kts | 32° |
| 2026-04-30 09:44 | 52.31405 | 4.75924 | 9 ft | 4 kts | 2° |
| 2026-04-30 09:44 | 52.31379 | 4.75926 | 7 ft | 4 kts | 354° |
| 2026-04-30 09:44 | 52.31368 | 4.75928 | 7 ft | 1 kts | 357° |
| 2026-04-30 09:50 | 52.31383 | 4.75926 | 8 ft | 4 kts | 357° |
| 2026-04-30 09:50 | 52.31422 | 4.75936 | 8 ft | 6 kts | 27° |
| 2026-04-30 09:51 | 52.31443 | 4.76003 | 10 ft | 8 kts | 75° |
| 2026-04-30 09:51 | 52.31451 | 4.76113 | 6 ft | 11 kts | 85° |
| 2026-04-30 09:51 | 52.31455 | 4.76224 | 6 ft | 9 kts | 86° |
| 2026-04-30 09:51 | 52.31458 | 4.76311 | 6 ft | 6 kts | 88° |
| 2026-04-30 09:52 | 52.31458 | 4.76372 | 6 ft | 4 kts | 90° |
| 2026-04-30 09:52 | 52.31461 | 4.76429 | 6 ft | 7 kts | 85° |
| 2026-04-30 09:52 | 52.31465 | 4.76522 | 6 ft | 10 kts | 86° |
| 2026-04-30 09:52 | 52.31470 | 4.76648 | 6 ft | 12 kts | 86° |
| 2026-04-30 09:53 | 52.31476 | 4.76802 | 8 ft | 15 kts | 87° |
| 2026-04-30 09:53 | 52.31481 | 4.76982 | 6 ft | 16 kts | 88° |
| 2026-04-30 09:53 | 52.31487 | 4.77136 | 6 ft | 9 kts | 79° |
| 2026-04-30 09:53 | 52.31535 | 4.77200 | 6 ft | 10 kts | 26° |
| 2026-04-30 09:54 | 52.31577 | 4.77304 | 8 ft | 12 kts | 69° |
| 2026-04-30 09:54 | 52.31625 | 4.77424 | 6 ft | 14 kts | 54° |
| 2026-04-30 09:54 | 52.31684 | 4.77572 | 6 ft | 17 kts | 57° |
| 2026-04-30 09:54 | 52.31777 | 4.77687 | 6 ft | 19 kts | 12° |
| 2026-04-30 09:55 | 52.31908 | 4.77704 | 6 ft | 19 kts | 4° |
| 2026-04-30 09:55 | 52.32020 | 4.77752 | 6 ft | 15 kts | 33° |
| 2026-04-30 09:55 | 52.32098 | 4.77862 | 6 ft | 12 kts | 48° |
| 2026-04-30 09:55 | 52.32108 | 4.77986 | 8 ft | 6 kts | 117° |
| 2026-04-30 09:56 | 52.32075 | 4.78005 | 6 ft | 6 kts | 176° |
| 2026-04-30 09:56 | 52.32029 | 4.78006 | 6 ft | 0 kts | 182° |
| 2026-04-30 09:58 | 52.32000 | 4.78003 | 6 ft | 24 kts | 182° |
| 2026-04-30 09:58 | 52.31535 | 4.77963 | 9 ft | 107 kts | 183° |
| 2026-04-30 09:58 | 52.30551 | 4.77877 | 9 ft | 171 kts | 184° |
| 2026-04-30 09:59 | 52.28002 | 4.77446 | 1184 ft | 186 kts | 183° |
| 2026-04-30 09:59 | 52.25747 | 4.78459 | 2744 ft | 165 kts | 129° |
| 2026-04-30 10:00 | 52.25108 | 4.81841 | 4253 ft | 161 kts | 89° |
| 2026-04-30 10:00 | 52.25342 | 4.83650 | 4776 ft | 172 kts | 83° |
| 2026-04-30 10:01 | 52.25509 | 4.87788 | 5504 ft | 198 kts | 95° |
| 2026-04-30 10:01 | 52.25461 | 4.90134 | 5879 ft | 217 kts | 95° |
| 2026-04-30 10:01 | 52.25405 | 4.92732 | 5969 ft | 242 kts | 94° |
| 2026-04-30 10:02 | 52.26002 | 4.98374 | 5944 ft | 264 kts | 64° |
| 2026-04-30 10:02 | 52.27200 | 5.00691 | 5976 ft | 272 kts | 49° |
| 2026-04-30 10:02 | 52.28629 | 5.02736 | 5960 ft | 274 kts | 45° |
| 2026-04-30 10:02 | 52.30089 | 5.04712 | 5961 ft | 274 kts | 45° |
| 2026-04-30 10:03 | 52.31570 | 5.06703 | 6809 ft | 271 kts | 44° |
| 2026-04-30 10:03 | 52.33104 | 5.08578 | 7571 ft | 281 kts | 34° |
| 2026-04-30 10:03 | 52.34935 | 5.09880 | 8010 ft | 289 kts | 23° |
| 2026-04-30 10:03 | 52.36875 | 5.10805 | 8388 ft | 292 kts | 20° |
| 2026-04-30 10:04 | 52.38181 | 5.11365 | 8818 ft | 292 kts | 20° |
| 2026-04-30 10:04 | 52.40150 | 5.12192 | 9710 ft | 294 kts | 20° |
| 2026-04-30 10:04 | 52.42163 | 5.13050 | 10286 ft | 309 kts | 20° |
| 2026-04-30 10:04 | 52.44322 | 5.13995 | 10425 ft | 336 kts | 20° |
| 2026-04-30 10:05 | 52.46666 | 5.15026 | 10756 ft | 354 kts | 20° |
| 2026-04-30 10:05 | 52.49064 | 5.16071 | 11539 ft | 358 kts | 19° |
| 2026-04-30 10:05 | 52.51484 | 5.17125 | 12320 ft | 361 kts | 19° |
| 2026-04-30 10:05 | 52.53926 | 5.18194 | 13082 ft | 365 kts | 19° |
| 2026-04-30 10:06 | 52.56398 | 5.19282 | 13823 ft | 369 kts | 19° |
| 2026-04-30 10:06 | 52.58892 | 5.20383 | 14499 ft | 373 kts | 18° |
| 2026-04-30 10:06 | 52.61409 | 5.21497 | 15139 ft | 376 kts | 19° |
| 2026-04-30 10:06 | 52.63949 | 5.22624 | 15757 ft | 379 kts | 19° |
| 2026-04-30 10:07 | 52.66513 | 5.23763 | 16346 ft | 383 kts | 19° |
| 2026-04-30 10:07 | 52.69101 | 5.24915 | 16933 ft | 386 kts | 19° |
| 2026-04-30 10:07 | 52.71709 | 5.26077 | 17533 ft | 390 kts | 19° |
| 2026-04-30 10:07 | 52.74359 | 5.27107 | 18093 ft | 395 kts | 15° |
| 2026-04-30 10:08 | 52.77079 | 5.27902 | 18659 ft | 399 kts | 13° |
| 2026-04-30 10:08 | 52.79838 | 5.28597 | 19145 ft | 402 kts | 12° |
| 2026-04-30 10:08 | 52.82618 | 5.29261 | 19635 ft | 405 kts | 12° |
| 2026-04-30 10:08 | 52.85415 | 5.29927 | 20107 ft | 407 kts | 12° |
| 2026-04-30 10:09 | 52.88229 | 5.30604 | 20574 ft | 410 kts | 12° |
| 2026-04-30 10:09 | 52.91060 | 5.31295 | 21034 ft | 412 kts | 12° |
| 2026-04-30 10:09 | 52.93868 | 5.31987 | 21493 ft | 415 kts | 12° |
| 2026-04-30 10:09 | 52.96737 | 5.32698 | 21973 ft | 417 kts | 12° |
| 2026-04-30 10:10 | 52.99610 | 5.33414 | 22447 ft | 420 kts | 12° |
| 2026-04-30 10:10 | 53.02515 | 5.34140 | 22927 ft | 423 kts | 11° |
| 2026-04-30 10:10 | 53.05434 | 5.34870 | 23412 ft | 426 kts | 11° |
| 2026-04-30 10:10 | 53.08372 | 5.35606 | 23906 ft | 428 kts | 11° |
| 2026-04-30 10:11 | 53.11330 | 5.36348 | 24354 ft | 431 kts | 11° |
| 2026-04-30 10:11 | 53.14304 | 5.37095 | 24774 ft | 434 kts | 11° |
| 2026-04-30 10:11 | 53.17302 | 5.37849 | 25199 ft | 436 kts | 11° |
| 2026-04-30 10:11 | 53.20318 | 5.38608 | 25638 ft | 439 kts | 11° |
| 2026-04-30 10:12 | 53.23341 | 5.39370 | 26082 ft | 442 kts | 11° |
| 2026-04-30 10:12 | 53.26386 | 5.40139 | 26517 ft | 444 kts | 11° |
| 2026-04-30 10:12 | 53.29419 | 5.40906 | 26944 ft | 447 kts | 11° |
| 2026-04-30 10:12 | 53.32500 | 5.41687 | 27369 ft | 449 kts | 11° |
| 2026-04-30 10:13 | 53.35604 | 5.42474 | 27801 ft | 452 kts | 11° |
| 2026-04-30 10:13 | 53.38718 | 5.43265 | 28207 ft | 455 kts | 11° |
| 2026-04-30 10:13 | 53.41859 | 5.44064 | 28629 ft | 457 kts | 11° |
| 2026-04-30 10:13 | 53.45013 | 5.44868 | 29040 ft | 460 kts | 10° |
| 2026-04-30 10:14 | 53.48183 | 5.45677 | 29442 ft | 463 kts | 10° |
| 2026-04-30 10:14 | 53.51384 | 5.46495 | 29836 ft | 465 kts | 10° |
| 2026-04-30 10:14 | 53.57819 | 5.48143 | 30591 ft | 470 kts | 10° |
| 2026-04-30 10:15 | 53.61044 | 5.48968 | 31011 ft | 468 kts | 10° |
| 2026-04-30 10:15 | 53.64282 | 5.49485 | 31450 ft | 468 kts | 4° |
| 2026-04-30 10:15 | 53.67534 | 5.49536 | 31875 ft | 467 kts | 0° |
| 2026-04-30 10:15 | 53.70774 | 5.49360 | 32306 ft | 465 kts | 359° |
| 2026-04-30 10:16 | 53.74006 | 5.49112 | 32727 ft | 464 kts | 359° |
| 2026-04-30 10:16 | 53.77231 | 5.48862 | 33107 ft | 463 kts | 359° |
| 2026-04-30 10:16 | 53.80441 | 5.48634 | 33513 ft | 461 kts | 359° |
| 2026-04-30 10:17 | 53.86844 | 5.48242 | 34234 ft | 459 kts | 360° |
| 2026-04-30 10:17 | 53.93194 | 5.47882 | 34861 ft | 456 kts | 359° |
| 2026-04-30 10:17 | 53.96372 | 5.47704 | 35011 ft | 457 kts | 359° |
| 2026-04-30 10:18 | 54.02737 | 5.47364 | 35050 ft | 458 kts | 359° |
| 2026-04-30 10:19 | 54.12281 | 5.46841 | 35054 ft | 458 kts | 359° |
| 2026-04-30 10:19 | 54.18645 | 5.46487 | 35058 ft | 457 kts | 359° |
| 2026-04-30 10:20 | 54.25003 | 5.46133 | 35060 ft | 457 kts | 359° |
| 2026-04-30 10:20 | 54.34486 | 5.45602 | 35060 ft | 457 kts | 359° |
| 2026-04-30 10:21 | 54.40843 | 5.45240 | 35059 ft | 456 kts | 358° |
| 2026-04-30 10:21 | 54.47188 | 5.44878 | 35063 ft | 456 kts | 358° |
| 2026-04-30 10:22 | 54.53527 | 5.44521 | 35066 ft | 456 kts | 358° |
| 2026-04-30 10:22 | 54.59872 | 5.44162 | 35065 ft | 456 kts | 358° |
| 2026-04-30 10:23 | 54.66209 | 5.43799 | 35068 ft | 456 kts | 358° |
| 2026-04-30 10:23 | 54.72550 | 5.43424 | 35069 ft | 456 kts | 358° |
| 2026-04-30 10:24 | 54.78888 | 5.43065 | 35071 ft | 456 kts | 358° |
| 2026-04-30 10:24 | 54.85224 | 5.42709 | 35066 ft | 456 kts | 358° |
| 2026-04-30 10:25 | 54.91583 | 5.42343 | 35065 ft | 456 kts | 357° |
| 2026-04-30 10:25 | 54.97925 | 5.41966 | 35068 ft | 456 kts | 358° |
| 2026-04-30 10:26 | 55.04231 | 5.41953 | 35071 ft | 457 kts | 0° |
| 2026-04-30 10:26 | 55.10624 | 5.42251 | 35071 ft | 456 kts | 1° |